sensor_id;sensor_type;location;lat;lon;timestamp;pressure;altitude;pressure_sealevel;temperature;humidity
78409;BME280;67697;50.750;-3.270;2023-12-07T00:00:27;100288.21;;;5.94;100.00
78409;BME280;67697;50.750;-3.270;2023-12-07T00:02:53;100284.20;;;6.01;100.00
78409;BME280;67697;50.750;-3.270;2023-12-07T00:05:19;100270.46;;;6.25;100.00
78409;BME280;67697;50.750;-3.270;2023-12-07T00:07:45;100271.03;;;6.20;100.00
78409;BME280;67697;50.750;-3.270;2023-12-07T00:10:10;100268.02;;;6.36;100.00
78409;BME280;67697;50.750;-3.270;2023-12-07T00:12:36;100272.10;;;6.22;100.00
78409;BME280;67697;50.750;-3.270;2023-12-07T00:15:02;100262.48;;;6.35;100.00
78409;BME280;67697;50.750;-3.270;2023-12-07T00:17:27;100265.17;;;6.04;100.00
78409;BME280;67697;50.750;-3.270;2023-12-07T00:19:53;100256.53;;;6.00;100.00
78409;BME280;67697;50.750;-3.270;2023-12-07T00:22:19;100261.51;;;6.01;100.00
78409;BME280;67697;50.750;-3.270;2023-12-07T00:24:45;100260.72;;;5.90;100.00
78409;BME280;67697;50.750;-3.270;2023-12-07T00:27:10;100268.41;;;6.15;100.00
78409;BME280;67697;50.750;-3.270;2023-12-07T00:29:37;100264.49;;;6.13;100.00
78409;BME280;67697;50.750;-3.270;2023-12-07T00:32:02;100265.78;;;6.14;100.00
78409;BME280;67697;50.750;-3.270;2023-12-07T00:34:28;100256.41;;;6.22;100.00
78409;BME280;67697;50.750;-3.270;2023-12-07T00:36:53;100246.67;;;6.20;100.00
78409;BME280;67697;50.750;-3.270;2023-12-07T00:39:19;100235.03;;;6.20;100.00
78409;BME280;67697;50.750;-3.270;2023-12-07T00:41:45;100234.31;;;6.05;100.00
78409;BME280;67697;50.750;-3.270;2023-12-07T00:44:10;100226.59;;;6.22;100.00
78409;BME280;67697;50.750;-3.270;2023-12-07T00:46:36;100213.37;;;5.94;100.00
78409;BME280;67697;50.750;-3.270;2023-12-07T00:49:05;100210.13;;;5.78;100.00
78409;BME280;67697;50.750;-3.270;2023-12-07T00:51:27;100202.88;;;6.42;100.00
78409;BME280;67697;50.750;-3.270;2023-12-07T00:53:53;100205.17;;;5.99;100.00
78409;BME280;67697;50.750;-3.270;2023-12-07T00:56:19;100200.54;;;6.08;100.00
78409;BME280;67697;50.750;-3.270;2023-12-07T00:58:45;100181.35;;;6.26;100.00
78409;BME280;67697;50.750;-3.270;2023-12-07T01:01:10;100198.30;;;6.20;100.00
78409;BME280;67697;50.750;-3.270;2023-12-07T01:03:36;100200.06;;;6.21;100.00
78409;BME280;67697;50.750;-3.270;2023-12-07T01:06:02;100188.88;;;6.18;100.00
78409;BME280;67697;50.750;-3.270;2023-12-07T01:08:27;100188.65;;;5.80;100.00
78409;BME280;67697;50.750;-3.270;2023-12-07T01:10:53;100177.20;;;5.88;100.00
78409;BME280;67697;50.750;-3.270;2023-12-07T01:13:19;100186.02;;;6.30;100.00
78409;BME280;67697;50.750;-3.270;2023-12-07T01:15:45;100181.96;;;5.92;100.00
78409;BME280;67697;50.750;-3.270;2023-12-07T01:18:10;100187.63;;;5.85;100.00
78409;BME280;67697;50.750;-3.270;2023-12-07T01:20:35;100182.27;;;6.17;100.00
78409;BME280;67697;50.750;-3.270;2023-12-07T01:23:01;100174.41;;;6.15;100.00
78409;BME280;67697;50.750;-3.270;2023-12-07T01:25:27;100170.24;;;6.44;100.00
78409;BME280;67697;50.750;-3.270;2023-12-07T01:27:53;100161.99;;;5.89;100.00
78409;BME280;67697;50.750;-3.270;2023-12-07T01:30:18;100161.11;;;6.19;100.00
78409;BME280;67697;50.750;-3.270;2023-12-07T01:32:45;100158.31;;;6.31;100.00
78409;BME280;67697;50.750;-3.270;2023-12-07T01:35:10;100155.30;;;6.26;100.00
78409;BME280;67697;50.750;-3.270;2023-12-07T01:37:35;100155.99;;;6.13;100.00
78409;BME280;67697;50.750;-3.270;2023-12-07T01:40:01;100162.24;;;5.99;100.00
78409;BME280;67697;50.750;-3.270;2023-12-07T01:42:27;100148.78;;;6.43;100.00
78409;BME280;67697;50.750;-3.270;2023-12-07T01:44:53;100150.32;;;6.23;100.00
78409;BME280;67697;50.750;-3.270;2023-12-07T01:47:18;100140.84;;;6.02;100.00
78409;BME280;67697;50.750;-3.270;2023-12-07T01:49:44;100126.35;;;6.16;100.00
78409;BME280;67697;50.750;-3.270;2023-12-07T01:52:10;100142.35;;;6.35;100.00
78409;BME280;67697;50.750;-3.270;2023-12-07T01:54:36;100135.59;;;6.25;100.00
78409;BME280;67697;50.750;-3.270;2023-12-07T01:57:01;100146.63;;;6.26;100.00
78409;BME280;67697;50.750;-3.270;2023-12-07T01:59:27;100153.62;;;6.62;100.00
78409;BME280;67697;50.750;-3.270;2023-12-07T02:01:53;100164.02;;;6.51;100.00
78409;BME280;67697;50.750;-3.270;2023-12-07T02:04:18;100157.32;;;6.56;100.00
78409;BME280;67697;50.750;-3.270;2023-12-07T02:06:45;100159.40;;;6.72;100.00
78409;BME280;67697;50.750;-3.270;2023-12-07T02:09:09;100152.08;;;6.58;100.00
78409;BME280;67697;50.750;-3.270;2023-12-07T02:11:35;100141.14;;;6.42;100.00
78409;BME280;67697;50.750;-3.270;2023-12-07T02:14:01;100141.80;;;6.60;100.00
78409;BME280;67697;50.750;-3.270;2023-12-07T02:16:31;100144.61;;;6.53;100.00
78409;BME280;67697;50.750;-3.270;2023-12-07T02:18:59;100138.18;;;5.98;100.00
78409;BME280;67697;50.750;-3.270;2023-12-07T02:21:25;100138.39;;;6.60;100.00
78409;BME280;67697;50.750;-3.270;2023-12-07T02:23:45;100129.06;;;6.47;100.00
78409;BME280;67697;50.750;-3.270;2023-12-07T02:26:10;100126.44;;;6.33;100.00
78409;BME280;67697;50.750;-3.270;2023-12-07T02:28:35;100105.22;;;6.51;100.00
78409;BME280;67697;50.750;-3.270;2023-12-07T02:31:01;100110.51;;;6.77;100.00
78409;BME280;67697;50.750;-3.270;2023-12-07T02:33:26;100106.91;;;6.67;100.00
78409;BME280;67697;50.750;-3.270;2023-12-07T02:35:52;100110.02;;;6.77;100.00
78409;BME280;67697;50.750;-3.270;2023-12-07T02:38:26;100115.81;;;6.68;100.00
78409;BME280;67697;50.750;-3.270;2023-12-07T02:40:45;100114.39;;;7.09;100.00
78409;BME280;67697;50.750;-3.270;2023-12-07T02:43:10;100122.09;;;6.89;100.00
78409;BME280;67697;50.750;-3.270;2023-12-07T02:45:34;100117.92;;;6.75;100.00
78409;BME280;67697;50.750;-3.270;2023-12-07T02:48:00;100114.88;;;6.95;100.00
78409;BME280;67697;50.750;-3.270;2023-12-07T02:50:26;100111.15;;;7.13;100.00
78409;BME280;67697;50.750;-3.270;2023-12-07T02:52:52;100106.71;;;6.38;100.00
78409;BME280;67697;50.750;-3.270;2023-12-07T02:55:18;100090.80;;;6.59;100.00
78409;BME280;67697;50.750;-3.270;2023-12-07T02:57:43;100086.12;;;7.09;100.00
78409;BME280;67697;50.750;-3.270;2023-12-07T03:00:09;100089.80;;;6.88;100.00
78409;BME280;67697;50.750;-3.270;2023-12-07T03:02:34;100071.13;;;6.86;100.00
78409;BME280;67697;50.750;-3.270;2023-12-07T03:04:59;100074.23;;;6.84;100.00
78409;BME280;67697;50.750;-3.270;2023-12-07T03:07:24;100069.08;;;6.72;100.00
78409;BME280;67697;50.750;-3.270;2023-12-07T03:09:49;100065.09;;;6.59;100.00
78409;BME280;67697;50.750;-3.270;2023-12-07T03:12:15;100049.91;;;6.89;100.00
78409;BME280;67697;50.750;-3.270;2023-12-07T03:14:40;100048.29;;;6.96;100.00
78409;BME280;67697;50.750;-3.270;2023-12-07T03:17:06;100041.35;;;7.21;100.00
78409;BME280;67697;50.750;-3.270;2023-12-07T03:19:31;100033.61;;;7.08;100.00
78409;BME280;67697;50.750;-3.270;2023-12-07T03:21:56;100047.46;;;6.23;100.00
78409;BME280;67697;50.750;-3.270;2023-12-07T03:24:22;100046.18;;;6.57;100.00
78409;BME280;67697;50.750;-3.270;2023-12-07T03:26:47;100053.99;;;6.91;100.00
78409;BME280;67697;50.750;-3.270;2023-12-07T03:29:13;100042.00;;;6.54;100.00
78409;BME280;67697;50.750;-3.270;2023-12-07T03:31:39;100049.23;;;6.97;100.00
78409;BME280;67697;50.750;-3.270;2023-12-07T03:34:04;100046.81;;;6.67;100.00
78409;BME280;67697;50.750;-3.270;2023-12-07T03:36:29;100052.77;;;7.24;100.00
78409;BME280;67697;50.750;-3.270;2023-12-07T03:38:54;100041.35;;;6.74;100.00
78409;BME280;67697;50.750;-3.270;2023-12-07T03:41:19;100041.20;;;7.10;100.00
78409;BME280;67697;50.750;-3.270;2023-12-07T03:43:46;100026.41;;;7.16;100.00
78409;BME280;67697;50.750;-3.270;2023-12-07T03:46:10;100017.83;;;6.90;100.00
78409;BME280;67697;50.750;-3.270;2023-12-07T03:48:35;100024.15;;;6.83;100.00
78409;BME280;67697;50.750;-3.270;2023-12-07T03:51:01;100013.56;;;6.92;100.00
78409;BME280;67697;50.750;-3.270;2023-12-07T03:53:26;100009.35;;;7.17;100.00
78409;BME280;67697;50.750;-3.270;2023-12-07T03:55:51;100010.83;;;6.80;100.00
78409;BME280;67697;50.750;-3.270;2023-12-07T03:58:16;100003.99;;;7.02;100.00
78409;BME280;67697;50.750;-3.270;2023-12-07T04:00:41;99999.01;;;6.86;100.00
78409;BME280;67697;50.750;-3.270;2023-12-07T04:03:07;100000.66;;;6.80;100.00
78409;BME280;67697;50.750;-3.270;2023-12-07T04:05:33;99994.24;;;6.81;100.00
78409;BME280;67697;50.750;-3.270;2023-12-07T04:07:58;99999.49;;;7.15;100.00
78409;BME280;67697;50.750;-3.270;2023-12-07T04:10:24;99996.99;;;6.99;100.00
78409;BME280;67697;50.750;-3.270;2023-12-07T04:12:48;99995.96;;;6.68;100.00
78409;BME280;67697;50.750;-3.270;2023-12-07T04:15:14;99988.09;;;6.80;100.00
78409;BME280;67697;50.750;-3.270;2023-12-07T04:17:39;99977.97;;;7.17;100.00
78409;BME280;67697;50.750;-3.270;2023-12-07T04:20:06;99975.85;;;6.99;100.00
78409;BME280;67697;50.750;-3.270;2023-12-07T04:22:30;99975.77;;;7.11;100.00
78409;BME280;67697;50.750;-3.270;2023-12-07T04:24:56;99973.06;;;6.97;100.00
78409;BME280;67697;50.750;-3.270;2023-12-07T04:27:21;99972.97;;;6.55;100.00
78409;BME280;67697;50.750;-3.270;2023-12-07T04:29:47;99971.18;;;6.65;100.00
78409;BME280;67697;50.750;-3.270;2023-12-07T04:32:13;99963.29;;;7.03;100.00
78409;BME280;67697;50.750;-3.270;2023-12-07T04:34:38;99967.36;;;7.17;100.00
78409;BME280;67697;50.750;-3.270;2023-12-07T04:37:04;99968.51;;;6.86;100.00
78409;BME280;67697;50.750;-3.270;2023-12-07T04:39:29;99960.52;;;6.97;100.00
78409;BME280;67697;50.750;-3.270;2023-12-07T04:41:55;99959.38;;;6.89;100.00
78409;BME280;67697;50.750;-3.270;2023-12-07T04:44:20;99957.98;;;7.10;100.00
78409;BME280;67697;50.750;-3.270;2023-12-07T04:46:46;99949.57;;;7.38;100.00
78409;BME280;67697;50.750;-3.270;2023-12-07T04:49:11;99958.11;;;7.46;100.00
78409;BME280;67697;50.750;-3.270;2023-12-07T04:51:36;99957.77;;;7.46;100.00
78409;BME280;67697;50.750;-3.270;2023-12-07T04:54:02;99958.52;;;6.87;100.00
78409;BME280;67697;50.750;-3.270;2023-12-07T04:56:27;99948.85;;;7.16;100.00
78409;BME280;67697;50.750;-3.270;2023-12-07T04:58:53;99941.32;;;6.93;100.00
78409;BME280;67697;50.750;-3.270;2023-12-07T05:01:18;99930.56;;;7.20;100.00
78409;BME280;67697;50.750;-3.270;2023-12-07T05:03:44;99928.55;;;6.94;100.00
78409;BME280;67697;50.750;-3.270;2023-12-07T05:06:09;99923.41;;;7.54;100.00
78409;BME280;67697;50.750;-3.270;2023-12-07T05:08:34;99922.31;;;6.89;100.00
78409;BME280;67697;50.750;-3.270;2023-12-07T05:10:59;99916.57;;;7.30;100.00
78409;BME280;67697;50.750;-3.270;2023-12-07T05:13:24;99914.31;;;7.12;100.00
78409;BME280;67697;50.750;-3.270;2023-12-07T05:15:50;99914.16;;;7.26;100.00
78409;BME280;67697;50.750;-3.270;2023-12-07T05:18:15;99906.42;;;7.46;100.00
78409;BME280;67697;50.750;-3.270;2023-12-07T05:20:41;99904.91;;;6.85;100.00
78409;BME280;67697;50.750;-3.270;2023-12-07T05:23:06;99902.94;;;6.96;100.00
78409;BME280;67697;50.750;-3.270;2023-12-07T05:25:32;99890.71;;;7.22;100.00
78409;BME280;67697;50.750;-3.270;2023-12-07T05:27:56;99897.79;;;7.28;100.00
78409;BME280;67697;50.750;-3.270;2023-12-07T05:30:22;99895.91;;;7.15;100.00
78409;BME280;67697;50.750;-3.270;2023-12-07T05:32:47;99899.86;;;6.72;100.00
78409;BME280;67697;50.750;-3.270;2023-12-07T05:35:13;99888.16;;;7.33;100.00
78409;BME280;67697;50.750;-3.270;2023-12-07T05:37:38;99875.67;;;7.53;100.00
78409;BME280;67697;50.750;-3.270;2023-12-07T05:40:05;99871.88;;;7.38;100.00
78409;BME280;67697;50.750;-3.270;2023-12-07T05:42:29;99861.88;;;7.42;100.00
78409;BME280;67697;50.750;-3.270;2023-12-07T05:44:55;99865.01;;;7.37;100.00
78409;BME280;67697;50.750;-3.270;2023-12-07T05:47:20;99861.62;;;7.36;100.00
78409;BME280;67697;50.750;-3.270;2023-12-07T05:49:46;99849.72;;;6.78;100.00
78409;BME280;67697;50.750;-3.270;2023-12-07T05:52:12;99846.59;;;7.64;100.00
78409;BME280;67697;50.750;-3.270;2023-12-07T05:54:38;99850.98;;;7.47;100.00
78409;BME280;67697;50.750;-3.270;2023-12-07T05:57:03;99841.78;;;7.70;100.00
78409;BME280;67697;50.750;-3.270;2023-12-07T05:59:28;99840.07;;;7.36;100.00
78409;BME280;67697;50.750;-3.270;2023-12-07T06:01:54;99843.98;;;7.40;100.00
78409;BME280;67697;50.750;-3.270;2023-12-07T06:04:19;99831.96;;;7.40;100.00
78409;BME280;67697;50.750;-3.270;2023-12-07T06:06:46;99830.34;;;7.63;100.00
78409;BME280;67697;50.750;-3.270;2023-12-07T06:09:10;99833.38;;;7.70;100.00
78409;BME280;67697;50.750;-3.270;2023-12-07T06:11:36;99839.03;;;7.41;100.00
78409;BME280;67697;50.750;-3.270;2023-12-07T06:14:02;99844.88;;;7.43;100.00
78409;BME280;67697;50.750;-3.270;2023-12-07T06:16:27;99846.60;;;7.61;100.00
78409;BME280;67697;50.750;-3.270;2023-12-07T06:18:53;99841.59;;;7.65;100.00
78409;BME280;67697;50.750;-3.270;2023-12-07T06:21:18;99836.42;;;7.48;100.00
78409;BME280;67697;50.750;-3.270;2023-12-07T06:23:43;99825.52;;;7.76;100.00
78409;BME280;67697;50.750;-3.270;2023-12-07T06:26:08;99820.09;;;7.84;100.00
78409;BME280;67697;50.750;-3.270;2023-12-07T06:28:34;99826.06;;;7.92;100.00
78409;BME280;67697;50.750;-3.270;2023-12-07T06:31:04;99831.79;;;7.57;100.00
78409;BME280;67697;50.750;-3.270;2023-12-07T06:33:25;99829.19;;;7.49;100.00
78409;BME280;67697;50.750;-3.270;2023-12-07T06:35:51;99834.62;;;7.30;100.00
78409;BME280;67697;50.750;-3.270;2023-12-07T06:38:16;99829.70;;;8.06;100.00
78409;BME280;67697;50.750;-3.270;2023-12-07T06:40:42;99829.26;;;8.03;100.00
78409;BME280;67697;50.750;-3.270;2023-12-07T06:43:07;99828.64;;;7.72;100.00
78409;BME280;67697;50.750;-3.270;2023-12-07T06:45:33;99831.98;;;8.00;100.00
78409;BME280;67697;50.750;-3.270;2023-12-07T06:47:59;99826.19;;;7.53;100.00
78409;BME280;67697;50.750;-3.270;2023-12-07T06:50:25;99819.67;;;8.00;100.00
78409;BME280;67697;50.750;-3.270;2023-12-07T06:52:50;99817.91;;;7.56;100.00
78409;BME280;67697;50.750;-3.270;2023-12-07T06:55:15;99810.91;;;7.83;100.00
78409;BME280;67697;50.750;-3.270;2023-12-07T06:57:42;99810.10;;;7.77;100.00
78409;BME280;67697;50.750;-3.270;2023-12-07T07:00:07;99807.55;;;7.70;100.00
78409;BME280;67697;50.750;-3.270;2023-12-07T07:02:32;99801.62;;;7.38;100.00
78409;BME280;67697;50.750;-3.270;2023-12-07T07:04:58;99786.54;;;7.69;100.00
78409;BME280;67697;50.750;-3.270;2023-12-07T07:07:24;99782.30;;;7.64;100.00
78409;BME280;67697;50.750;-3.270;2023-12-07T07:09:49;99782.56;;;7.62;100.00
78409;BME280;67697;50.750;-3.270;2023-12-07T07:12:15;99775.27;;;7.75;100.00
78409;BME280;67697;50.750;-3.270;2023-12-07T07:14:41;99778.79;;;7.61;100.00
78409;BME280;67697;50.750;-3.270;2023-12-07T07:17:05;99772.34;;;7.76;100.00
78409;BME280;67697;50.750;-3.270;2023-12-07T07:19:31;99766.96;;;7.60;100.00
78409;BME280;67697;50.750;-3.270;2023-12-07T07:21:56;99778.39;;;7.59;100.00
78409;BME280;67697;50.750;-3.270;2023-12-07T07:24:22;99774.57;;;7.44;100.00
78409;BME280;67697;50.750;-3.270;2023-12-07T07:26:48;99773.04;;;7.71;100.00
78409;BME280;67697;50.750;-3.270;2023-12-07T07:29:13;99777.43;;;7.48;100.00
78409;BME280;67697;50.750;-3.270;2023-12-07T07:31:39;99778.97;;;7.64;100.00
78409;BME280;67697;50.750;-3.270;2023-12-07T07:34:05;99763.05;;;7.06;100.00
78409;BME280;67697;50.750;-3.270;2023-12-07T07:36:30;99766.90;;;7.34;100.00
78409;BME280;67697;50.750;-3.270;2023-12-07T07:38:55;99756.53;;;7.55;100.00
78409;BME280;67697;50.750;-3.270;2023-12-07T07:41:21;99756.11;;;7.33;100.00
78409;BME280;67697;50.750;-3.270;2023-12-07T07:43:47;99754.94;;;7.47;100.00
78409;BME280;67697;50.750;-3.270;2023-12-07T07:46:13;99758.50;;;7.44;100.00
78409;BME280;67697;50.750;-3.270;2023-12-07T07:48:38;99760.55;;;7.30;100.00
78409;BME280;67697;50.750;-3.270;2023-12-07T07:51:04;99763.67;;;7.59;100.00
78409;BME280;67697;50.750;-3.270;2023-12-07T07:53:30;99767.29;;;7.28;100.00
78409;BME280;67697;50.750;-3.270;2023-12-07T07:55:55;99766.82;;;7.62;100.00
78409;BME280;67697;50.750;-3.270;2023-12-07T07:58:20;99755.72;;;7.43;100.00
78409;BME280;67697;50.750;-3.270;2023-12-07T08:00:46;99746.01;;;7.57;100.00
78409;BME280;67697;50.750;-3.270;2023-12-07T08:03:11;99746.33;;;7.61;100.00
78409;BME280;67697;50.750;-3.270;2023-12-07T08:05:37;99740.00;;;8.06;100.00
78409;BME280;67697;50.750;-3.270;2023-12-07T08:08:03;99729.19;;;7.68;100.00
78409;BME280;67697;50.750;-3.270;2023-12-07T08:10:28;99729.35;;;7.46;100.00
78409;BME280;67697;50.750;-3.270;2023-12-07T08:12:54;99717.72;;;7.59;100.00
78409;BME280;67697;50.750;-3.270;2023-12-07T08:15:19;99724.12;;;7.42;100.00
78409;BME280;67697;50.750;-3.270;2023-12-07T08:17:46;99716.67;;;7.52;100.00
78409;BME280;67697;50.750;-3.270;2023-12-07T08:20:11;99715.02;;;7.24;100.00
78409;BME280;67697;50.750;-3.270;2023-12-07T08:22:37;99697.51;;;7.68;100.00
78409;BME280;67697;50.750;-3.270;2023-12-07T08:25:02;99693.97;;;7.32;100.00
78409;BME280;67697;50.750;-3.270;2023-12-07T08:27:28;99682.98;;;7.30;100.00
78409;BME280;67697;50.750;-3.270;2023-12-07T08:29:53;99676.27;;;7.27;100.00
78409;BME280;67697;50.750;-3.270;2023-12-07T08:32:19;99678.50;;;7.69;100.00
78409;BME280;67697;50.750;-3.270;2023-12-07T08:34:46;99671.95;;;7.37;100.00
78409;BME280;67697;50.750;-3.270;2023-12-07T08:37:10;99670.42;;;7.54;100.00
78409;BME280;67697;50.750;-3.270;2023-12-07T08:39:36;99669.67;;;7.52;100.00
78409;BME280;67697;50.750;-3.270;2023-12-07T08:42:01;99661.73;;;7.56;100.00
78409;BME280;67697;50.750;-3.270;2023-12-07T08:44:26;99654.72;;;7.66;100.00
78409;BME280;67697;50.750;-3.270;2023-12-07T08:46:52;99647.32;;;7.43;100.00
78409;BME280;67697;50.750;-3.270;2023-12-07T08:49:17;99646.55;;;7.32;100.00
78409;BME280;67697;50.750;-3.270;2023-12-07T08:51:43;99646.21;;;7.80;100.00
78409;BME280;67697;50.750;-3.270;2023-12-07T08:54:08;99635.36;;;7.37;100.00
78409;BME280;67697;50.750;-3.270;2023-12-07T08:56:34;99631.91;;;7.45;100.00
78409;BME280;67697;50.750;-3.270;2023-12-07T08:58:59;99630.61;;;7.19;100.00
78409;BME280;67697;50.750;-3.270;2023-12-07T09:01:24;99631.36;;;7.60;100.00
78409;BME280;67697;50.750;-3.270;2023-12-07T09:03:50;99633.56;;;7.75;100.00
78409;BME280;67697;50.750;-3.270;2023-12-07T09:06:15;99635.68;;;7.51;100.00
78409;BME280;67697;50.750;-3.270;2023-12-07T09:08:41;99623.32;;;7.52;100.00
78409;BME280;67697;50.750;-3.270;2023-12-07T09:11:07;99613.52;;;7.67;100.00
78409;BME280;67697;50.750;-3.270;2023-12-07T09:13:32;99608.57;;;7.42;100.00
78409;BME280;67697;50.750;-3.270;2023-12-07T09:15:58;99611.46;;;7.32;100.00
78409;BME280;67697;50.750;-3.270;2023-12-07T09:18:28;99608.14;;;7.43;100.00
78409;BME280;67697;50.750;-3.270;2023-12-07T09:20:49;99595.79;;;7.19;100.00
78409;BME280;67697;50.750;-3.270;2023-12-07T09:23:15;99580.83;;;7.23;100.00
78409;BME280;67697;50.750;-3.270;2023-12-07T09:25:40;99588.96;;;7.51;100.00
78409;BME280;67697;50.750;-3.270;2023-12-07T09:28:06;99594.63;;;7.57;100.00
78409;BME280;67697;50.750;-3.270;2023-12-07T09:30:31;99581.87;;;7.74;100.00
78409;BME280;67697;50.750;-3.270;2023-12-07T09:32:57;99592.91;;;7.55;100.00
78409;BME280;67697;50.750;-3.270;2023-12-07T09:35:22;99592.90;;;7.64;100.00
78409;BME280;67697;50.750;-3.270;2023-12-07T09:37:48;99591.23;;;7.22;100.00
78409;BME280;67697;50.750;-3.270;2023-12-07T09:40:16;99583.74;;;7.07;100.00
78409;BME280;67697;50.750;-3.270;2023-12-07T09:42:39;99581.35;;;7.22;100.00
78409;BME280;67697;50.750;-3.270;2023-12-07T09:45:06;99586.01;;;7.67;100.00
78409;BME280;67697;50.750;-3.270;2023-12-07T09:47:31;99585.63;;;7.64;100.00
78409;BME280;67697;50.750;-3.270;2023-12-07T09:49:56;99586.61;;;7.44;100.00
78409;BME280;67697;50.750;-3.270;2023-12-07T09:52:21;99598.14;;;7.43;100.00
78409;BME280;67697;50.750;-3.270;2023-12-07T09:54:47;99590.38;;;7.43;100.00
78409;BME280;67697;50.750;-3.270;2023-12-07T09:57:13;99602.56;;;7.54;100.00
78409;BME280;67697;50.750;-3.270;2023-12-07T09:59:40;99602.57;;;7.51;100.00
78409;BME280;67697;50.750;-3.270;2023-12-07T10:02:04;99598.58;;;7.40;100.00
78409;BME280;67697;50.750;-3.270;2023-12-07T10:04:29;99599.67;;;7.27;100.00
78409;BME280;67697;50.750;-3.270;2023-12-07T10:06:56;99589.92;;;7.15;100.00
78409;BME280;67697;50.750;-3.270;2023-12-07T10:09:21;99603.72;;;7.07;100.00
78409;BME280;67697;50.750;-3.270;2023-12-07T10:11:47;99605.10;;;7.56;100.00
78409;BME280;67697;50.750;-3.270;2023-12-07T10:14:12;99598.54;;;7.43;100.00
78409;BME280;67697;50.750;-3.270;2023-12-07T10:16:38;99596.23;;;7.08;100.00
78409;BME280;67697;50.750;-3.270;2023-12-07T10:19:13;99607.44;;;7.29;100.00
78409;BME280;67697;50.750;-3.270;2023-12-07T10:21:33;99606.06;;;7.08;100.00
78409;BME280;67697;50.750;-3.270;2023-12-07T10:23:55;99600.26;;;7.32;100.00
78409;BME280;67697;50.750;-3.270;2023-12-07T10:26:21;99592.39;;;6.95;100.00
78409;BME280;67697;50.750;-3.270;2023-12-07T10:28:49;99593.94;;;7.20;100.00
78409;BME280;67697;50.750;-3.270;2023-12-07T10:31:12;99586.97;;;7.09;100.00
78409;BME280;67697;50.750;-3.270;2023-12-07T10:33:37;99593.03;;;7.26;100.00
78409;BME280;67697;50.750;-3.270;2023-12-07T10:36:04;99577.81;;;6.99;100.00
78409;BME280;67697;50.750;-3.270;2023-12-07T10:38:29;99566.57;;;7.63;100.00
78409;BME280;67697;50.750;-3.270;2023-12-07T10:41:03;99567.87;;;6.97;100.00
78409;BME280;67697;50.750;-3.270;2023-12-07T10:43:20;99564.64;;;7.27;100.00
78409;BME280;67697;50.750;-3.270;2023-12-07T10:45:47;99554.95;;;7.16;100.00
78409;BME280;67697;50.750;-3.270;2023-12-07T10:48:12;99560.87;;;7.11;100.00
78409;BME280;67697;50.750;-3.270;2023-12-07T10:50:40;99550.94;;;7.47;100.00
78409;BME280;67697;50.750;-3.270;2023-12-07T10:53:08;99535.66;;;7.31;100.00
78409;BME280;67697;50.750;-3.270;2023-12-07T10:55:30;99541.33;;;7.39;100.00
78409;BME280;67697;50.750;-3.270;2023-12-07T10:57:55;99538.48;;;6.83;100.00
78409;BME280;67697;50.750;-3.270;2023-12-07T11:00:19;99524.58;;;7.47;100.00
78409;BME280;67697;50.750;-3.270;2023-12-07T11:02:47;99523.52;;;7.30;100.00
78409;BME280;67697;50.750;-3.270;2023-12-07T11:05:11;99515.28;;;7.06;100.00
78409;BME280;67697;50.750;-3.270;2023-12-07T11:07:44;99499.43;;;7.44;100.00
78409;BME280;67697;50.750;-3.270;2023-12-07T11:10:07;99491.97;;;7.43;100.00
78409;BME280;67697;50.750;-3.270;2023-12-07T11:12:33;99493.67;;;7.06;100.00
78409;BME280;67697;50.750;-3.270;2023-12-07T11:14:53;99489.36;;;6.58;100.00
78409;BME280;67697;50.750;-3.270;2023-12-07T11:17:21;99487.31;;;7.04;100.00
78409;BME280;67697;50.750;-3.270;2023-12-07T11:19:46;99473.82;;;7.39;100.00
78409;BME280;67697;50.750;-3.270;2023-12-07T11:22:11;99466.38;;;6.75;100.00
78409;BME280;67697;50.750;-3.270;2023-12-07T11:24:36;99467.96;;;7.29;100.00
78409;BME280;67697;50.750;-3.270;2023-12-07T11:27:02;99465.77;;;6.60;100.00
78409;BME280;67697;50.750;-3.270;2023-12-07T11:29:29;99470.94;;;6.64;100.00
78409;BME280;67697;50.750;-3.270;2023-12-07T11:31:56;99463.22;;;7.13;100.00
78409;BME280;67697;50.750;-3.270;2023-12-07T11:36:46;99443.87;;;7.07;100.00
78409;BME280;67697;50.750;-3.270;2023-12-07T11:39:16;99439.22;;;6.78;100.00
78409;BME280;67697;50.750;-3.270;2023-12-07T11:41:35;99439.67;;;7.27;100.00
78409;BME280;67697;50.750;-3.270;2023-12-07T11:44:01;99433.23;;;7.40;100.00
78409;BME280;67697;50.750;-3.270;2023-12-07T11:46:26;99426.08;;;7.01;100.00
78409;BME280;67697;50.750;-3.270;2023-12-07T11:48:52;99421.82;;;6.90;100.00
78409;BME280;67697;50.750;-3.270;2023-12-07T11:51:23;99412.19;;;7.08;100.00
78409;BME280;67697;50.750;-3.270;2023-12-07T11:53:43;99416.37;;;7.14;100.00
78409;BME280;67697;50.750;-3.270;2023-12-07T11:56:10;99400.65;;;7.54;100.00
78409;BME280;67697;50.750;-3.270;2023-12-07T11:58:36;99404.58;;;6.79;100.00
78409;BME280;67697;50.750;-3.270;2023-12-07T12:01:01;99396.27;;;7.10;100.00
78409;BME280;67697;50.750;-3.270;2023-12-07T12:03:27;99391.96;;;7.18;100.00
78409;BME280;67697;50.750;-3.270;2023-12-07T12:05:52;99394.05;;;7.26;100.00
78409;BME280;67697;50.750;-3.270;2023-12-07T12:08:18;99390.41;;;7.15;100.00
78409;BME280;67697;50.750;-3.270;2023-12-07T12:10:43;99382.96;;;7.15;100.00
78409;BME280;67697;50.750;-3.270;2023-12-07T12:13:09;99381.85;;;7.26;100.00
78409;BME280;67697;50.750;-3.270;2023-12-07T12:15:35;99369.92;;;7.14;100.00
78409;BME280;67697;50.750;-3.270;2023-12-07T12:18:00;99360.44;;;7.09;100.00
78409;BME280;67697;50.750;-3.270;2023-12-07T12:20:26;99354.47;;;6.78;100.00
78409;BME280;67697;50.750;-3.270;2023-12-07T12:22:52;99347.30;;;7.29;100.00
78409;BME280;67697;50.750;-3.270;2023-12-07T12:25:17;99348.42;;;7.36;100.00
78409;BME280;67697;50.750;-3.270;2023-12-07T12:27:43;99341.01;;;7.52;100.00
78409;BME280;67697;50.750;-3.270;2023-12-07T12:30:10;99343.36;;;7.13;100.00
78409;BME280;67697;50.750;-3.270;2023-12-07T12:32:42;99331.84;;;7.08;100.00
78409;BME280;67697;50.750;-3.270;2023-12-07T12:35:00;99306.19;;;7.05;100.00
78409;BME280;67697;50.750;-3.270;2023-12-07T12:37:26;99316.55;;;7.02;100.00
78409;BME280;67697;50.750;-3.270;2023-12-07T12:39:51;99310.96;;;6.99;100.00